createdAt,value
2018-12-24T00:00:35.824Z,0.00
2018-12-24T00:01:35.967Z,0.00
2018-12-24T00:02:36.111Z,0.00
2018-12-24T00:03:36.261Z,0.00
2018-12-24T00:04:36.405Z,0.00
2018-12-24T00:05:36.551Z,0.00
2018-12-24T00:06:36.700Z,0.00
2018-12-24T00:07:36.843Z,0.00
2018-12-24T00:08:36.987Z,0.00
2018-12-24T00:09:37.132Z,0.00
2018-12-24T00:10:37.275Z,0.00
2018-12-24T00:11:37.421Z,0.00
2018-12-24T00:12:37.567Z,0.00
2018-12-24T00:13:37.711Z,0.00
2018-12-24T00:14:37.856Z,0.00
2018-12-24T00:15:37.999Z,0.00
2018-12-24T00:16:38.148Z,0.00
2018-12-24T00:17:38.291Z,0.00
2018-12-24T00:18:38.437Z,0.00
2018-12-24T00:19:38.581Z,0.00
2018-12-24T00:20:38.723Z,0.00
2018-12-24T00:21:38.872Z,0.00
2018-12-24T00:22:39.010Z,0.00
2018-12-24T00:23:39.157Z,0.00
2018-12-24T00:24:39.304Z,0.00
2018-12-24T00:25:39.448Z,0.00
2018-12-24T00:26:39.595Z,0.00
2018-12-24T00:27:39.740Z,0.00
2018-12-24T00:28:39.884Z,0.00
2018-12-24T00:29:40.032Z,0.00
2018-12-24T00:30:40.174Z,0.00
2018-12-24T00:31:40.319Z,0.00
2018-12-24T00:32:40.464Z,0.00
2018-12-24T00:33:40.610Z,0.00
2018-12-24T00:34:40.756Z,0.00
2018-12-24T00:35:40.902Z,0.00
2018-12-24T00:36:41.042Z,0.00
2018-12-24T00:37:41.186Z,0.00
2018-12-24T00:38:41.335Z,0.00
2018-12-24T00:39:41.479Z,0.00
2018-12-24T00:40:41.624Z,0.00
2018-12-24T00:41:41.767Z,0.00
2018-12-24T00:42:41.914Z,0.00
2018-12-24T00:43:42.060Z,0.00
2018-12-24T00:44:42.204Z,0.00
2018-12-24T00:45:42.350Z,0.00
2018-12-24T00:46:42.494Z,0.00
2018-12-24T00:47:42.639Z,0.00
2018-12-24T00:48:42.784Z,0.00
2018-12-24T00:49:42.928Z,0.00
2018-12-24T00:50:43.077Z,0.00
2018-12-24T00:51:43.222Z,0.00
2018-12-24T00:52:43.368Z,0.00
2018-12-24T00:53:43.512Z,0.00
2018-12-24T00:54:43.658Z,0.00
2018-12-24T00:55:43.805Z,0.00
2018-12-24T00:56:43.948Z,0.00
2018-12-24T00:57:44.096Z,0.00
2018-12-24T00:58:44.237Z,0.00
2018-12-24T00:59:44.381Z,0.00
2018-12-24T01:00:44.525Z,0.00
2018-12-24T01:01:44.678Z,0.00
2018-12-24T01:02:44.814Z,0.00
2018-12-24T01:03:44.958Z,0.00
2018-12-24T01:04:45.107Z,0.00
2018-12-24T01:05:45.246Z,0.00
2018-12-24T01:06:45.390Z,0.00
2018-12-24T01:07:45.534Z,0.00
2018-12-24T01:08:45.677Z,0.00
2018-12-24T01:09:45.822Z,0.00
2018-12-24T01:10:45.965Z,0.00
2018-12-24T01:11:46.110Z,0.00
2018-12-24T01:12:46.252Z,0.00
2018-12-24T01:13:46.398Z,0.00
2018-12-24T01:14:46.540Z,0.00
2018-12-24T01:15:46.686Z,0.00
2018-12-24T01:16:46.831Z,0.00
2018-12-24T01:17:46.976Z,0.00
2018-12-24T01:18:47.121Z,0.00
2018-12-24T01:19:47.264Z,0.00
2018-12-24T01:20:47.409Z,0.00
2018-12-24T01:21:47.552Z,0.00
2018-12-24T01:22:47.697Z,0.00
2018-12-24T01:23:47.839Z,0.00
2018-12-24T01:24:47.983Z,0.00
2018-12-24T01:25:48.128Z,0.00
2018-12-24T01:26:48.273Z,0.00
2018-12-24T01:27:48.416Z,0.00
2018-12-24T01:28:48.562Z,0.00
2018-12-24T01:29:48.704Z,0.00
2018-12-24T01:30:48.848Z,0.00
2018-12-24T01:31:48.990Z,0.00
2018-12-24T01:32:49.136Z,0.00
2018-12-24T01:33:49.280Z,0.00
2018-12-24T01:34:49.427Z,0.00
2018-12-24T01:35:49.569Z,0.00
2018-12-24T01:36:49.711Z,0.00
2018-12-24T01:37:49.855Z,0.00
2018-12-24T01:38:49.996Z,0.00
2018-12-24T01:39:50.140Z,0.00
2018-12-24T01:40:50.285Z,0.00
2018-12-24T01:41:50.497Z,0.00
2018-12-24T01:42:50.573Z,0.00
2018-12-24T01:43:50.717Z,0.00
2018-12-24T01:44:50.861Z,0.00
2018-12-24T01:45:51.004Z,0.00
2018-12-24T01:46:51.150Z,0.00
2018-12-24T01:47:51.294Z,0.00
2018-12-24T01:48:51.433Z,0.00
2018-12-24T01:49:51.580Z,0.00
2018-12-24T01:50:51.722Z,0.00
2018-12-24T01:51:51.866Z,0.00
2018-12-24T01:52:52.015Z,0.00
2018-12-24T01:53:52.160Z,0.00
2018-12-24T01:54:52.298Z,0.00
2018-12-24T01:55:52.444Z,0.00
2018-12-24T01:56:52.591Z,0.00
2018-12-24T01:57:52.736Z,0.00
2018-12-24T01:58:52.878Z,0.00
2018-12-24T01:59:53.023Z,0.00
2018-12-24T02:00:53.167Z,0.00
2018-12-24T02:01:53.312Z,0.00
2018-12-24T02:02:53.455Z,0.00
2018-12-24T02:03:53.598Z,0.00
2018-12-24T02:04:53.750Z,0.00
2018-12-24T02:05:53.884Z,0.00
2018-12-24T02:06:54.029Z,0.00
2018-12-24T02:07:54.176Z,0.00
2018-12-24T02:08:54.317Z,0.00
2018-12-24T02:09:54.461Z,0.00
2018-12-24T02:10:54.606Z,0.00
2018-12-24T02:11:54.750Z,0.00
2018-12-24T02:12:54.895Z,0.00
2018-12-24T02:13:55.039Z,0.00
2018-12-24T02:14:55.182Z,0.00
2018-12-24T02:15:55.326Z,0.00
2018-12-24T02:16:55.472Z,0.00
2018-12-24T02:17:55.723Z,0.00
2018-12-24T02:18:55.762Z,0.00
2018-12-24T02:19:55.905Z,0.00
2018-12-24T02:20:56.052Z,0.00
2018-12-24T02:21:56.197Z,0.00
2018-12-24T02:22:56.363Z,0.00
2018-12-24T02:23:56.486Z,0.00
2018-12-24T02:24:56.632Z,0.00
2018-12-24T02:25:56.776Z,0.00
2018-12-24T02:26:56.920Z,0.00
2018-12-24T02:27:57.141Z,0.00
2018-12-24T02:28:57.208Z,0.00
2018-12-24T02:29:57.354Z,0.00
2018-12-24T02:30:57.496Z,0.00
2018-12-24T02:31:57.643Z,0.00
2018-12-24T02:32:57.788Z,0.00
2018-12-24T02:33:57.935Z,0.00
2018-12-24T02:34:58.075Z,0.00
2018-12-24T02:35:58.221Z,0.00
2018-12-24T02:36:58.366Z,0.00
2018-12-24T02:37:58.512Z,0.00
2018-12-24T02:38:58.652Z,0.00
2018-12-24T02:39:58.795Z,0.00
2018-12-24T02:40:58.950Z,0.00
2018-12-24T02:41:59.087Z,0.00
2018-12-24T02:42:59.230Z,0.00
2018-12-24T02:43:59.374Z,0.00
2018-12-24T02:44:59.520Z,0.00
2018-12-24T02:45:59.662Z,0.00
2018-12-24T02:46:59.808Z,0.00
2018-12-24T02:47:59.949Z,0.00
2018-12-24T02:49:00.098Z,0.00
2018-12-24T02:50:00.239Z,0.00
2018-12-24T02:51:00.385Z,0.00
2018-12-24T02:52:00.531Z,0.00
2018-12-24T02:53:00.677Z,0.00
2018-12-24T02:54:00.818Z,0.00
2018-12-24T02:55:00.968Z,0.00
2018-12-24T02:56:01.109Z,0.00
2018-12-24T02:57:01.251Z,0.00
2018-12-24T02:58:01.391Z,0.00
2018-12-24T02:59:01.537Z,0.00
2018-12-24T03:00:01.681Z,0.00
2018-12-24T03:01:01.828Z,0.00
2018-12-24T03:02:01.986Z,0.00
2018-12-24T03:03:02.255Z,0.00
2018-12-24T03:04:02.262Z,0.00
2018-12-24T03:05:02.406Z,0.00
2018-12-24T03:06:02.550Z,0.00
2018-12-24T03:07:02.764Z,0.00
2018-12-24T03:08:02.852Z,0.00
2018-12-24T03:09:02.987Z,0.00
2018-12-24T03:10:03.132Z,0.00
2018-12-24T03:11:03.274Z,0.00
2018-12-24T03:12:03.416Z,0.00
2018-12-24T03:13:03.588Z,0.00
2018-12-24T03:14:03.730Z,0.00
2018-12-24T03:15:03.872Z,0.00
2018-12-24T03:16:04.019Z,0.00
2018-12-24T03:17:04.165Z,0.00
2018-12-24T03:18:04.315Z,0.00
2018-12-24T03:19:04.451Z,0.00
2018-12-24T03:20:04.597Z,0.00
2018-12-24T03:21:04.745Z,0.00
2018-12-24T03:22:04.891Z,0.00
2018-12-24T03:23:05.034Z,0.00
2018-12-24T03:24:05.184Z,0.00
2018-12-24T03:25:05.324Z,0.00
2018-12-24T03:26:05.467Z,0.00
2018-12-24T03:27:05.613Z,0.00
2018-12-24T03:28:05.755Z,0.00
2018-12-24T03:29:05.903Z,0.00
2018-12-24T03:30:06.044Z,0.00
2018-12-24T03:31:06.187Z,0.00
2018-12-24T03:32:06.331Z,0.00
2018-12-24T03:33:06.476Z,0.00
2018-12-24T03:34:06.621Z,0.00
2018-12-24T03:35:06.762Z,0.00
2018-12-24T03:36:06.914Z,0.00
2018-12-24T03:37:07.084Z,0.00
2018-12-24T03:38:07.197Z,0.00
2018-12-24T03:39:07.339Z,0.00
2018-12-24T03:40:07.483Z,0.00
2018-12-24T03:41:07.626Z,0.00
2018-12-24T03:42:07.806Z,0.00
2018-12-24T03:43:12.442Z,0.00
2018-12-24T03:44:08.055Z,0.00
2018-12-24T03:45:08.204Z,0.00
2018-12-24T03:46:08.349Z,0.00
2018-12-24T03:47:08.492Z,0.00
2018-12-24T03:48:08.639Z,0.00
2018-12-24T03:49:08.783Z,0.00
2018-12-24T03:50:08.927Z,0.00
2018-12-24T03:51:09.072Z,0.00
2018-12-24T03:52:09.234Z,0.00
2018-12-24T03:53:09.370Z,0.00
2018-12-24T03:54:09.517Z,0.00
2018-12-24T03:55:09.660Z,0.00
2018-12-24T03:56:09.804Z,0.00
2018-12-24T03:57:09.952Z,0.00
2018-12-24T03:58:10.095Z,0.00
2018-12-24T03:59:10.241Z,0.00
2018-12-24T04:00:10.384Z,0.00
2018-12-24T04:01:10.530Z,0.00
2018-12-24T04:02:10.674Z,0.00
2018-12-24T04:03:10.821Z,0.00
2018-12-24T04:04:10.964Z,0.00
2018-12-24T04:05:11.115Z,0.00
2018-12-24T04:06:11.257Z,0.00
2018-12-24T04:07:11.400Z,0.00
2018-12-24T04:08:11.543Z,0.00
2018-12-24T04:09:11.690Z,0.00
2018-12-24T04:10:11.837Z,0.00
2018-12-24T04:11:11.980Z,0.00
2018-12-24T04:12:12.133Z,0.00
2018-12-24T04:13:22.177Z,0.00
2018-12-24T04:14:12.410Z,0.00
2018-12-24T04:15:12.557Z,0.00
2018-12-24T04:16:12.696Z,0.00
2018-12-24T04:17:12.845Z,0.00
2018-12-24T04:18:12.988Z,0.00
2018-12-24T04:19:13.130Z,0.00
2018-12-24T04:20:13.274Z,0.00
2018-12-24T04:21:13.422Z,0.00
2018-12-24T04:22:13.564Z,0.00
2018-12-24T04:23:13.710Z,0.00
2018-12-24T04:24:13.854Z,0.00
2018-12-24T04:25:13.997Z,0.00
2018-12-24T04:26:14.142Z,0.00
2018-12-24T04:27:14.285Z,0.00
2018-12-24T04:28:14.431Z,0.00
2018-12-24T04:29:14.580Z,0.00
2018-12-24T04:30:14.723Z,0.00
2018-12-24T04:31:14.867Z,0.00
2018-12-24T04:32:15.013Z,0.00
2018-12-24T04:33:15.160Z,0.00
2018-12-24T04:34:15.303Z,0.00
2018-12-24T04:35:15.450Z,0.00
2018-12-24T04:36:15.697Z,0.00
2018-12-24T04:37:15.735Z,0.00
2018-12-24T04:38:15.883Z,0.00
2018-12-24T04:39:16.024Z,0.00
2018-12-24T04:40:16.168Z,0.00
2018-12-24T04:41:16.315Z,0.00
2018-12-24T04:42:16.457Z,0.00
2018-12-24T04:43:16.608Z,0.00
2018-12-24T04:44:16.753Z,0.00
2018-12-24T04:45:16.915Z,0.00
2018-12-24T04:46:17.042Z,0.00
2018-12-24T04:47:17.185Z,0.00
2018-12-24T04:48:17.328Z,0.00
2018-12-24T04:49:17.471Z,0.00
2018-12-24T04:50:17.617Z,0.00
2018-12-24T04:51:17.763Z,0.00
2018-12-24T04:52:17.908Z,0.00
2018-12-24T04:53:18.054Z,0.00
2018-12-24T04:54:18.200Z,0.00
2018-12-24T04:55:18.343Z,0.00
2018-12-24T04:56:18.489Z,0.00
2018-12-24T04:57:18.634Z,0.00
2018-12-24T04:58:18.778Z,0.00
2018-12-24T04:59:18.924Z,0.00
2018-12-24T05:00:19.069Z,0.00
2018-12-24T05:01:19.213Z,0.00
2018-12-24T05:02:19.358Z,0.00
2018-12-24T05:03:19.503Z,0.00
2018-12-24T05:04:19.650Z,0.00
2018-12-24T05:05:19.796Z,0.00
2018-12-24T05:06:19.939Z,0.00
2018-12-24T05:07:20.086Z,0.00
2018-12-24T05:08:20.230Z,0.00
2018-12-24T05:09:20.374Z,0.00
2018-12-24T05:10:20.521Z,0.00
2018-12-24T05:11:20.666Z,0.00
2018-12-24T05:12:20.809Z,0.00
2018-12-24T05:13:20.957Z,0.00
2018-12-24T05:14:21.099Z,0.00
2018-12-24T05:15:21.340Z,0.00
2018-12-24T05:16:21.388Z,0.00
2018-12-24T05:17:21.534Z,0.00
2018-12-24T05:18:21.675Z,0.00
2018-12-24T05:19:21.822Z,0.00
2018-12-24T05:20:21.965Z,0.00
2018-12-24T05:21:22.112Z,0.00
2018-12-24T05:22:22.258Z,0.00
2018-12-24T05:23:22.398Z,0.00
2018-12-24T05:24:22.545Z,0.00
2018-12-24T05:25:22.689Z,0.00
2018-12-24T05:26:22.836Z,0.00
2018-12-24T05:27:22.981Z,0.00
2018-12-24T05:28:23.127Z,0.00
2018-12-24T05:29:23.271Z,0.00
2018-12-24T05:30:23.417Z,0.00
2018-12-24T05:31:23.558Z,0.00
2018-12-24T05:32:23.705Z,0.00
2018-12-24T05:33:23.851Z,0.00
2018-12-24T05:34:23.995Z,0.00
2018-12-24T05:35:24.141Z,0.00
2018-12-24T05:36:24.291Z,0.00
2018-12-24T05:37:24.430Z,0.00
2018-12-24T05:38:24.575Z,0.00
2018-12-24T05:39:24.723Z,0.00
2018-12-24T05:40:24.866Z,0.00
2018-12-24T05:41:25.013Z,0.00
2018-12-24T05:42:25.157Z,0.00
2018-12-24T05:43:25.300Z,0.00
2018-12-24T05:44:25.446Z,0.00
2018-12-24T05:45:25.592Z,0.00
2018-12-24T05:46:25.735Z,0.00
2018-12-24T05:47:25.880Z,0.00
2018-12-24T05:48:26.026Z,0.00
2018-12-24T05:49:26.169Z,0.00
2018-12-24T05:50:26.314Z,0.00
2018-12-24T05:51:26.460Z,0.00
2018-12-24T05:52:26.603Z,0.00
2018-12-24T05:53:26.749Z,0.00
2018-12-24T05:54:26.894Z,0.00
2018-12-24T05:55:27.038Z,0.00
2018-12-24T05:56:27.183Z,0.00
2018-12-24T05:57:27.330Z,0.00
2018-12-24T05:58:27.475Z,0.00
2018-12-24T05:59:27.623Z,0.00
2018-12-24T06:00:27.766Z,0.00
2018-12-24T06:01:27.911Z,0.00
2018-12-24T06:02:28.059Z,0.00
2018-12-24T06:03:28.200Z,0.00
2018-12-24T06:04:28.345Z,0.00
2018-12-24T06:05:28.493Z,0.00
2018-12-24T06:06:28.647Z,0.00
2018-12-24T06:07:28.781Z,0.00
2018-12-24T06:08:28.924Z,0.00
2018-12-24T06:09:29.071Z,0.00
2018-12-24T06:10:29.217Z,0.00
2018-12-24T06:11:29.367Z,0.00
2018-12-24T06:12:29.508Z,0.00
2018-12-24T06:13:29.727Z,0.00
2018-12-24T06:14:30.028Z,0.00
2018-12-24T06:15:29.933Z,0.00
2018-12-24T06:16:30.098Z,0.00
2018-12-24T06:17:30.221Z,0.00
2018-12-24T06:18:30.363Z,0.00
2018-12-24T06:19:30.508Z,0.00
2018-12-24T06:20:37.632Z,0.00
2018-12-24T06:21:30.793Z,0.00
2018-12-24T06:22:30.940Z,0.00
2018-12-24T06:23:31.090Z,0.00
2018-12-24T06:24:31.232Z,0.00
2018-12-24T06:25:31.373Z,0.00
2018-12-24T06:26:31.521Z,0.00
2018-12-24T06:27:31.661Z,0.00
2018-12-24T06:28:31.806Z,0.00
2018-12-24T06:29:31.950Z,0.00
2018-12-24T06:30:32.096Z,0.00
2018-12-24T06:31:32.240Z,0.00
2018-12-24T06:32:32.384Z,0.00
2018-12-24T06:33:32.529Z,0.00
2018-12-24T06:34:32.674Z,0.00
2018-12-24T06:35:32.822Z,0.00
2018-12-24T06:36:32.965Z,0.00
2018-12-24T06:37:33.111Z,0.00
2018-12-24T06:38:33.254Z,0.00
2018-12-24T06:39:33.418Z,0.00
2018-12-24T06:40:33.545Z,0.00
2018-12-24T06:41:33.711Z,0.00
2018-12-24T06:42:33.857Z,0.00
2018-12-24T06:43:34.003Z,0.00
2018-12-24T06:44:34.149Z,0.00
2018-12-24T06:45:34.291Z,0.00
2018-12-24T06:46:34.438Z,0.00
2018-12-24T06:47:34.584Z,0.00
2018-12-24T06:48:34.733Z,0.00
2018-12-24T06:49:34.873Z,0.00
2018-12-24T06:50:35.018Z,0.00
2018-12-24T06:51:35.165Z,0.00
2018-12-24T06:52:35.309Z,0.00
2018-12-24T06:53:35.453Z,0.00
2018-12-24T06:54:35.602Z,0.00
2018-12-24T06:55:35.743Z,0.00
2018-12-24T06:56:35.889Z,0.00
2018-12-24T06:57:36.035Z,0.00
2018-12-24T06:58:36.181Z,0.00
2018-12-24T06:59:36.328Z,0.00
2018-12-24T07:00:36.473Z,0.00
2018-12-24T07:01:36.621Z,0.00
2018-12-24T07:02:36.766Z,0.00
2018-12-24T07:03:36.911Z,0.00
2018-12-24T07:04:37.055Z,0.00
2018-12-24T07:05:37.202Z,0.00
2018-12-24T07:06:37.348Z,0.00
2018-12-24T07:07:37.491Z,0.00
2018-12-24T07:08:37.640Z,0.00
2018-12-24T07:09:37.782Z,0.00
2018-12-24T07:10:37.930Z,0.00
2018-12-24T07:11:38.076Z,0.00
2018-12-24T07:12:38.225Z,0.00
2018-12-24T07:13:38.367Z,0.00
2018-12-24T07:14:38.509Z,0.00
2018-12-24T07:15:38.657Z,0.00
2018-12-24T07:16:38.803Z,0.00
2018-12-24T07:17:38.951Z,0.00
2018-12-24T07:18:39.095Z,0.00
2018-12-24T07:19:39.239Z,0.00
2018-12-24T07:20:39.384Z,0.00
2018-12-24T07:21:39.530Z,0.00
2018-12-24T07:22:39.675Z,5.63
2018-12-24T07:23:39.824Z,5.63
2018-12-24T07:24:39.966Z,5.63
2018-12-24T07:25:40.110Z,5.63
2018-12-24T07:26:40.256Z,11.25
2018-12-24T07:27:40.399Z,11.25
2018-12-24T07:28:40.546Z,11.25
2018-12-24T07:29:40.695Z,16.88
2018-12-24T07:30:40.838Z,16.88
2018-12-24T07:31:40.983Z,16.88
2018-12-24T07:32:41.129Z,16.88
2018-12-24T07:33:41.274Z,16.88
2018-12-24T07:34:41.422Z,16.88
2018-12-24T07:35:41.564Z,16.88
2018-12-24T07:36:41.710Z,22.50
2018-12-24T07:37:41.856Z,22.50
2018-12-24T07:38:42.002Z,22.50
2018-12-24T07:39:42.151Z,22.50
2018-12-24T07:40:42.299Z,28.13
2018-12-24T07:41:42.444Z,28.13
2018-12-24T07:42:42.587Z,28.13
2018-12-24T07:43:42.734Z,28.13
2018-12-24T07:44:42.880Z,28.13
2018-12-24T07:45:43.025Z,28.13
2018-12-24T07:46:43.170Z,28.13
2018-12-24T07:47:43.426Z,28.13
2018-12-24T07:48:43.454Z,28.13
2018-12-24T07:49:43.597Z,28.13
2018-12-24T07:50:43.750Z,22.50
2018-12-24T07:51:43.889Z,22.50
2018-12-24T07:52:44.034Z,22.50
2018-12-24T07:53:44.177Z,22.50
2018-12-24T07:54:44.329Z,22.50
2018-12-24T07:55:44.476Z,28.13
2018-12-24T07:56:44.622Z,28.13
2018-12-24T07:57:44.767Z,33.75
2018-12-24T07:58:44.913Z,39.38
2018-12-24T07:59:45.059Z,45.00
2018-12-24T08:00:45.204Z,50.63
2018-12-24T08:01:45.349Z,56.25
2018-12-24T08:02:45.494Z,56.25
2018-12-24T08:03:45.661Z,56.25
2018-12-24T08:04:45.782Z,56.25
2018-12-24T08:05:45.930Z,61.88
2018-12-24T08:06:46.082Z,67.50
2018-12-24T08:07:46.222Z,73.13
2018-12-24T08:08:46.369Z,73.13
2018-12-24T08:09:46.514Z,73.13
2018-12-24T08:10:46.662Z,73.13
2018-12-24T08:11:46.809Z,67.50
2018-12-24T08:12:46.954Z,56.25
2018-12-24T08:13:47.101Z,45.00
2018-12-24T08:14:47.250Z,39.38
2018-12-24T08:15:47.393Z,33.75
2018-12-24T08:16:47.540Z,33.75
2018-12-24T08:17:47.686Z,33.75
2018-12-24T08:18:47.833Z,39.38
2018-12-24T08:19:47.986Z,39.38
2018-12-24T08:20:48.125Z,39.38
2018-12-24T08:21:48.272Z,39.38
2018-12-24T08:22:48.416Z,45.00
2018-12-24T08:23:48.563Z,45.00
2018-12-24T08:24:48.711Z,45.00
2018-12-24T08:25:48.857Z,50.63
2018-12-24T08:26:51.402Z,50.63
2018-12-24T08:27:49.146Z,45.00
2018-12-24T08:28:49.292Z,45.00
2018-12-24T08:29:49.439Z,45.00
2018-12-24T08:30:49.583Z,45.00
2018-12-24T08:31:49.729Z,50.63
2018-12-24T08:32:49.878Z,56.25
2018-12-24T08:33:50.022Z,61.88
2018-12-24T08:34:50.173Z,73.13
2018-12-24T08:35:50.319Z,84.38
2018-12-24T08:36:50.471Z,90.00
2018-12-24T08:37:50.613Z,90.00
2018-12-24T08:38:50.761Z,90.00
2018-12-24T08:39:50.905Z,90.00
2018-12-24T08:40:51.053Z,90.00
2018-12-24T08:41:51.195Z,90.00
2018-12-24T08:42:51.343Z,90.00
2018-12-24T08:43:51.490Z,90.00
2018-12-24T08:44:51.640Z,90.00
2018-12-24T08:45:51.786Z,90.00
2018-12-24T08:46:51.932Z,95.63
2018-12-24T08:47:52.077Z,95.63
2018-12-24T08:48:52.223Z,95.63
2018-12-24T08:49:52.374Z,95.63
2018-12-24T08:50:52.515Z,95.63
2018-12-24T08:51:52.659Z,112.50
2018-12-24T08:52:52.809Z,123.75
2018-12-24T08:53:52.954Z,129.38
2018-12-24T08:54:53.101Z,129.38
2018-12-24T08:55:53.248Z,123.75
2018-12-24T08:56:53.394Z,123.75
2018-12-24T08:57:53.544Z,129.38
2018-12-24T08:58:53.689Z,129.38
2018-12-24T08:59:53.835Z,135.00
2018-12-24T09:00:53.981Z,135.00
2018-12-24T09:01:54.128Z,129.38
2018-12-24T09:02:54.272Z,129.38
2018-12-24T09:03:54.418Z,129.38
2018-12-24T09:04:54.566Z,135.00
2018-12-24T09:05:54.711Z,146.25
2018-12-24T09:06:54.860Z,151.88
2018-12-24T09:07:55.009Z,157.50
2018-12-24T09:08:55.154Z,174.38
2018-12-24T09:09:55.304Z,180.00
2018-12-24T09:10:55.449Z,163.13
2018-12-24T09:11:55.597Z,174.38
2018-12-24T09:12:55.744Z,163.13
2018-12-24T09:13:55.892Z,202.50
2018-12-24T09:14:56.044Z,202.50
2018-12-24T09:15:56.184Z,208.13
2018-12-24T09:16:56.333Z,208.13
2018-12-24T09:17:56.476Z,208.13
2018-12-24T09:18:56.624Z,219.38
2018-12-24T09:19:56.774Z,225.00
2018-12-24T09:20:56.920Z,213.75
2018-12-24T09:21:57.067Z,219.38
2018-12-24T09:22:57.213Z,225.00
2018-12-24T09:23:57.362Z,225.00
2018-12-24T09:24:57.505Z,230.63
2018-12-24T09:25:57.653Z,219.38
2018-12-24T09:26:57.799Z,230.63
2018-12-24T09:27:57.947Z,236.25
2018-12-24T09:28:58.095Z,230.63
2018-12-24T09:29:58.240Z,185.63
2018-12-24T09:30:58.384Z,180.00
2018-12-24T09:31:58.546Z,174.38
2018-12-24T09:32:58.672Z,202.50
2018-12-24T09:33:58.819Z,225.00
2018-12-24T09:34:58.966Z,208.13
2018-12-24T09:35:59.114Z,225.00
2018-12-24T09:36:59.260Z,225.00
2018-12-24T09:37:59.408Z,202.50
2018-12-24T09:38:59.555Z,191.25
2018-12-24T09:39:59.702Z,174.38
2018-12-24T09:40:59.847Z,174.38
2018-12-24T09:41:59.995Z,191.25
2018-12-24T09:43:00.144Z,213.75
2018-12-24T09:44:00.288Z,174.38
2018-12-24T09:45:00.439Z,168.75
2018-12-24T09:46:00.585Z,174.38
2018-12-24T09:47:00.734Z,174.38
2018-12-24T09:48:00.884Z,174.38
2018-12-24T09:49:01.030Z,174.38
2018-12-24T09:50:01.178Z,174.38
2018-12-24T09:51:01.323Z,174.38
2018-12-24T09:52:01.473Z,185.63
2018-12-24T09:53:01.617Z,196.88
2018-12-24T09:54:01.763Z,185.63
2018-12-24T09:55:01.910Z,180.00
2018-12-24T09:56:02.056Z,185.63
2018-12-24T09:57:02.204Z,191.25
2018-12-24T09:58:02.352Z,208.13
2018-12-24T09:59:02.493Z,219.38
2018-12-24T10:00:02.645Z,219.38
2018-12-24T10:01:02.790Z,208.13
2018-12-24T10:02:02.937Z,196.88
2018-12-24T10:03:03.083Z,196.88
2018-12-24T10:04:03.246Z,208.13
2018-12-24T10:05:03.376Z,225.00
2018-12-24T10:06:03.522Z,213.75
2018-12-24T10:07:03.669Z,185.63
2018-12-24T10:08:03.823Z,191.25
2018-12-24T10:09:03.984Z,196.88
2018-12-24T10:10:04.136Z,202.50
2018-12-24T10:11:04.275Z,202.50
2018-12-24T10:12:04.421Z,202.50
2018-12-24T10:13:04.571Z,202.50
2018-12-24T10:14:04.716Z,208.13
2018-12-24T10:15:07.950Z,208.13
2018-12-24T10:16:05.013Z,196.88
2018-12-24T10:17:05.154Z,191.25
2018-12-24T10:18:05.303Z,185.63
2018-12-24T10:19:05.447Z,191.25
2018-12-24T10:20:05.593Z,191.25
2018-12-24T10:21:05.797Z,180.00
2018-12-24T10:22:05.886Z,174.38
2018-12-24T10:23:06.036Z,180.00
2018-12-24T10:24:06.185Z,191.25
2018-12-24T10:25:06.330Z,202.50
2018-12-24T10:26:06.475Z,208.13
2018-12-24T10:27:06.687Z,208.13
2018-12-24T10:28:06.768Z,208.13
2018-12-24T10:29:06.916Z,202.50
2018-12-24T10:30:07.060Z,191.25
2018-12-24T10:31:07.210Z,196.88
2018-12-24T10:32:07.357Z,196.88
2018-12-24T10:33:07.504Z,185.63
2018-12-24T10:34:07.652Z,180.00
2018-12-24T10:35:07.798Z,185.63
2018-12-24T10:36:07.946Z,202.50
2018-12-24T10:37:08.097Z,219.38
2018-12-24T10:38:08.242Z,236.25
2018-12-24T10:39:08.388Z,236.25
2018-12-24T10:40:08.534Z,241.88
2018-12-24T10:41:08.684Z,241.88
2018-12-24T10:42:08.830Z,213.75
2018-12-24T10:43:08.974Z,208.13
2018-12-24T10:44:09.122Z,208.13
2018-12-24T10:45:16.312Z,219.38
2018-12-24T10:46:09.430Z,225.00
2018-12-24T10:47:09.576Z,241.88
2018-12-24T10:48:09.724Z,236.25
2018-12-24T10:49:09.870Z,230.63
2018-12-24T10:50:10.016Z,225.00
2018-12-24T10:51:10.159Z,213.75
2018-12-24T10:52:10.303Z,213.75
2018-12-24T10:53:10.454Z,225.00
2018-12-24T10:54:10.602Z,241.88
2018-12-24T10:55:10.749Z,258.75
2018-12-24T10:56:10.904Z,281.25
2018-12-24T10:57:11.055Z,298.13
2018-12-24T10:58:11.209Z,286.88
2018-12-24T10:59:11.364Z,281.25
2018-12-24T11:00:11.511Z,264.38
2018-12-24T11:01:11.659Z,270.00
2018-12-24T11:02:11.813Z,258.75
2018-12-24T11:03:11.965Z,236.25
2018-12-24T11:04:12.115Z,230.63
2018-12-24T11:05:12.272Z,236.25
2018-12-24T11:06:12.429Z,253.13
2018-12-24T11:07:12.589Z,264.38
2018-12-24T11:08:12.759Z,241.88
2018-12-24T11:09:12.888Z,208.13
2018-12-24T11:10:13.035Z,219.38
2018-12-24T11:11:13.187Z,225.00
2018-12-24T11:12:13.339Z,196.88
2018-12-24T11:13:13.505Z,174.38
2018-12-24T11:14:13.662Z,157.50
2018-12-24T11:15:13.811Z,146.25
2018-12-24T11:16:13.968Z,140.63
2018-12-24T11:17:14.117Z,157.50
2018-12-24T11:18:14.268Z,180.00
2018-12-24T11:19:14.418Z,196.88
2018-12-24T11:20:14.562Z,219.38
2018-12-24T11:21:14.711Z,230.63
2018-12-24T11:22:14.861Z,236.25
2018-12-24T11:23:15.018Z,230.63
2018-12-24T11:24:15.171Z,225.00
2018-12-24T11:25:15.318Z,225.00
2018-12-24T11:26:15.463Z,236.25
2018-12-24T11:27:15.611Z,264.38
2018-12-24T11:28:15.761Z,292.50
2018-12-24T11:29:15.902Z,286.88
2018-12-24T11:30:16.049Z,275.63
2018-12-24T11:31:16.196Z,258.75
2018-12-24T11:32:16.343Z,236.25
2018-12-24T11:33:16.487Z,219.38
2018-12-24T11:34:16.635Z,202.50
2018-12-24T11:35:16.784Z,191.25
2018-12-24T11:36:16.930Z,202.50
2018-12-24T11:37:17.171Z,213.75
2018-12-24T11:38:17.220Z,236.25
2018-12-24T11:39:17.374Z,253.13
2018-12-24T11:40:17.524Z,247.50
2018-12-24T11:41:17.669Z,241.88
2018-12-24T11:42:17.821Z,230.63
2018-12-24T11:43:17.974Z,230.63
2018-12-24T11:44:18.136Z,225.00
2018-12-24T11:45:18.275Z,225.00
2018-12-24T11:46:18.421Z,219.38
2018-12-24T11:47:18.569Z,230.63
2018-12-24T11:48:18.716Z,247.50
2018-12-24T11:49:18.911Z,241.88
2018-12-24T11:50:18.995Z,225.00
2018-12-24T11:51:19.143Z,202.50
2018-12-24T11:52:19.295Z,208.13
2018-12-24T11:53:19.441Z,213.75
2018-12-24T11:54:19.589Z,202.50
2018-12-24T11:55:19.760Z,208.13
2018-12-24T11:56:19.880Z,225.00
2018-12-24T11:57:20.037Z,208.13
2018-12-24T11:58:20.176Z,196.88
2018-12-24T11:59:20.323Z,196.88
2018-12-24T12:00:20.593Z,213.75
2018-12-24T12:01:20.616Z,213.75
2018-12-24T12:02:20.768Z,208.13
2018-12-24T12:03:20.923Z,202.50
2018-12-24T12:04:21.071Z,196.88
2018-12-24T12:05:21.212Z,196.88
2018-12-24T12:06:21.359Z,202.50
2018-12-24T12:07:21.522Z,208.13
2018-12-24T12:08:21.678Z,219.38
2018-12-24T12:09:21.823Z,230.63
2018-12-24T12:10:21.967Z,253.13
2018-12-24T12:11:22.120Z,258.75
2018-12-24T12:12:22.270Z,247.50
2018-12-24T12:13:22.414Z,253.13
2018-12-24T12:14:22.562Z,258.75
2018-12-24T12:15:22.709Z,264.38
2018-12-24T12:16:22.856Z,253.13
2018-12-24T12:17:23.091Z,258.75
2018-12-24T12:18:23.151Z,270.00
2018-12-24T12:19:23.299Z,264.38
2018-12-24T12:20:23.445Z,270.00
2018-12-24T12:21:23.623Z,264.38
2018-12-24T12:22:23.772Z,292.50
2018-12-24T12:23:23.919Z,320.63
2018-12-24T12:24:24.063Z,326.25
2018-12-24T12:25:24.218Z,309.38
2018-12-24T12:26:24.360Z,298.13
2018-12-24T12:27:24.505Z,303.75
2018-12-24T12:28:24.651Z,309.38
2018-12-24T12:29:24.799Z,270.00
2018-12-24T12:30:24.944Z,258.75
2018-12-24T12:31:25.131Z,286.88
2018-12-24T12:32:25.285Z,258.75
2018-12-24T12:33:25.371Z,270.00
2018-12-24T12:34:25.528Z,241.88
2018-12-24T12:35:25.668Z,258.75
2018-12-24T12:36:25.822Z,258.75
2018-12-24T12:37:25.969Z,236.25
2018-12-24T12:38:29.885Z,270.00
2018-12-24T12:39:26.301Z,219.38
2018-12-24T12:40:26.402Z,208.13
2018-12-24T12:41:26.546Z,208.13
2018-12-24T12:42:26.695Z,208.13
2018-12-24T12:43:26.845Z,213.75
2018-12-24T12:44:26.993Z,213.75
2018-12-24T12:45:27.143Z,213.75
2018-12-24T12:46:27.290Z,213.75
2018-12-24T12:47:27.433Z,241.88
2018-12-24T12:48:27.584Z,202.50
2018-12-24T12:49:27.735Z,196.88
2018-12-24T12:50:27.891Z,196.88
2018-12-24T12:51:28.085Z,196.88
2018-12-24T12:52:28.256Z,191.25
2018-12-24T12:53:28.463Z,185.63
2018-12-24T12:54:28.500Z,180.00
2018-12-24T12:55:28.734Z,168.75
2018-12-24T12:56:28.795Z,163.13
2018-12-24T12:57:28.945Z,157.50
2018-12-24T12:58:29.144Z,151.88
2018-12-24T12:59:29.295Z,140.63
2018-12-24T13:00:29.440Z,140.63